createdAt,value
2019-05-26T00:00:20.370Z,8.80
2019-05-26T00:02:50.282Z,8.77
2019-05-26T00:05:19.903Z,8.03
2019-05-26T00:07:49.388Z,9.10
2019-05-26T00:10:19.282Z,8.87
2019-05-26T00:12:48.760Z,8.57
2019-05-26T00:15:18.445Z,8.60
2019-05-26T00:17:47.925Z,8.60
2019-05-26T00:20:17.793Z,8.70
2019-05-26T00:22:47.357Z,8.63
2019-05-26T00:25:16.843Z,8.03
2019-05-26T00:27:46.477Z,8.83
2019-05-26T00:30:17.095Z,8.90
2019-05-26T00:32:47.005Z,9.20
2019-05-26T00:35:17.648Z,9.53
2019-05-26T00:37:49.696Z,9.60
2019-05-26T00:40:18.828Z,10.13
2019-05-26T00:42:48.402Z,9.63
2019-05-26T00:45:18.196Z,9.47
2019-05-26T00:47:47.762Z,9.00
2019-05-26T00:50:17.531Z,9.00
2019-05-26T00:52:47.445Z,8.83
2019-05-26T00:55:17.242Z,9.20
2019-05-26T00:57:46.834Z,9.07
2019-05-26T01:00:18.234Z,9.00
2019-05-26T01:02:48.128Z,9.03
2019-05-26T01:05:17.941Z,9.13
2019-05-26T01:08:04.964Z,9.37
2019-05-26T01:10:19.587Z,8.70
2019-05-26T01:12:49.089Z,8.57
2019-05-26T01:15:18.661Z,9.47
2019-05-26T01:17:48.207Z,8.40
2019-05-26T01:20:18.124Z,8.30
2019-05-26T01:22:47.821Z,8.37
2019-05-26T01:25:17.335Z,8.83
2019-05-26T01:27:46.802Z,9.40
2019-05-26T01:30:17.857Z,9.53
2019-05-26T01:32:47.749Z,10.10
2019-05-26T01:35:17.719Z,9.27
2019-05-26T01:37:47.624Z,10.23
2019-05-26T01:40:18.675Z,10.70
2019-05-26T01:42:48.254Z,10.40
2019-05-26T01:45:17.848Z,11.20
2019-05-26T01:47:47.336Z,9.93
2019-05-26T01:50:16.843Z,10.93
2019-05-26T01:52:46.757Z,12.23
2019-05-26T01:55:16.738Z,12.70
2019-05-26T01:57:46.560Z,12.67
2019-05-26T02:00:16.143Z,12.53
2019-05-26T02:02:45.777Z,12.50
2019-05-26T02:05:15.355Z,13.27
2019-05-26T02:07:44.940Z,12.80
2019-05-26T02:10:15.008Z,12.77
2019-05-26T02:12:44.499Z,11.93
2019-05-26T02:15:14.731Z,14.10
2019-05-26T02:17:44.710Z,12.93
2019-05-26T02:20:14.670Z,15.23
2019-05-26T02:22:44.227Z,14.53
2019-05-26T02:25:16.174Z,16.20
2019-05-26T02:27:46.054Z,16.80
2019-05-26T02:30:16.060Z,17.37
2019-05-26T02:32:46.387Z,17.70
2019-05-26T02:35:16.937Z,17.73
2019-05-26T02:37:46.803Z,18.23
2019-05-26T02:40:16.878Z,19.20
2019-05-26T02:42:46.647Z,19.63
2019-05-26T02:45:17.817Z,19.33
2019-05-26T02:47:48.026Z,20.10
2019-05-26T02:50:18.403Z,21.50
2019-05-26T02:52:48.356Z,20.17
2019-05-26T02:55:18.401Z,23.60
2019-05-26T02:57:48.167Z,23.90
2019-05-26T03:00:24.315Z,26.57
2019-05-26T03:02:54.117Z,26.47
2019-05-26T03:05:23.736Z,22.90
2019-05-26T03:07:54.085Z,24.37
2019-05-26T03:10:24.029Z,26.60
2019-05-26T03:12:54.142Z,26.37
2019-05-26T03:15:23.704Z,29.73
2019-05-26T03:17:54.529Z,29.40
2019-05-26T03:20:24.420Z,30.00
2019-05-26T03:22:55.513Z,29.47
2019-05-26T03:25:25.093Z,29.87
2019-05-26T03:27:54.600Z,29.93
2019-05-26T03:30:24.550Z,29.43
2019-05-26T03:32:54.673Z,28.70
2019-05-26T03:35:24.210Z,31.17
2019-05-26T03:37:53.803Z,29.17
2019-05-26T03:40:23.379Z,31.13
2019-05-26T03:42:53.035Z,31.17
2019-05-26T03:45:29.448Z,30.83
2019-05-26T03:47:59.007Z,31.80
2019-05-26T03:50:29.042Z,34.40
2019-05-26T03:52:58.890Z,34.87
2019-05-26T03:55:28.503Z,34.67
2019-05-26T03:57:58.173Z,34.90
2019-05-26T04:00:27.664Z,33.97
2019-05-26T04:02:57.165Z,36.23
2019-05-26T04:05:26.765Z,38.10
2019-05-26T04:07:56.484Z,36.70
2019-05-26T04:10:26.583Z,37.10
2019-05-26T04:12:56.225Z,35.83
2019-05-26T04:15:25.783Z,39.00
2019-05-26T04:17:55.516Z,37.17
2019-05-26T04:20:25.023Z,38.17
2019-05-26T04:22:54.577Z,36.23
2019-05-26T04:25:24.155Z,35.77
2019-05-26T04:27:53.708Z,38.07
2019-05-26T04:30:23.325Z,36.97
2019-05-26T04:32:53.033Z,33.80
2019-05-26T04:35:22.755Z,34.27
2019-05-26T04:37:52.701Z,32.50
2019-05-26T04:40:27.116Z,32.40
2019-05-26T04:42:53.717Z,32.57
2019-05-26T04:45:23.304Z,32.70
2019-05-26T04:47:52.815Z,32.60
2019-05-26T04:50:22.591Z,32.97
2019-05-26T04:53:05.268Z,33.40
2019-05-26T04:55:23.390Z,33.30
2019-05-26T04:57:53.042Z,32.60
2019-05-26T05:00:22.656Z,34.90
2019-05-26T05:02:52.253Z,33.73
2019-05-26T05:05:22.043Z,34.30
2019-05-26T05:07:51.878Z,34.70
2019-05-26T05:10:21.536Z,34.60
2019-05-26T05:12:51.093Z,32.90
2019-05-26T05:15:20.603Z,34.43
2019-05-26T05:17:50.484Z,35.33
2019-05-26T05:20:20.386Z,35.67
2019-05-26T05:22:50.019Z,34.93
2019-05-26T05:25:19.641Z,34.77
2019-05-26T05:27:49.236Z,35.15
2019-05-26T05:30:19.816Z,33.63
2019-05-26T05:32:49.320Z,33.97
2019-05-26T05:35:20.000Z,34.07
2019-05-26T05:37:49.546Z,33.27
2019-05-26T05:40:19.451Z,33.40
2019-05-26T05:42:49.018Z,33.80
2019-05-26T05:45:18.827Z,33.60
2019-05-26T05:47:48.712Z,32.88
2019-05-26T05:50:18.597Z,33.50
2019-05-26T05:52:48.170Z,32.78
2019-05-26T05:55:17.872Z,31.25
2019-05-26T05:57:47.419Z,31.95
2019-05-26T06:00:17.086Z,30.95
2019-05-26T06:02:46.755Z,30.65
2019-05-26T06:05:16.628Z,28.40
2019-05-26T06:07:46.127Z,27.80
2019-05-26T06:10:15.606Z,28.85
2019-05-26T06:12:45.150Z,27.98
2019-05-26T06:15:16.379Z,28.23
2019-05-26T06:17:46.093Z,29.10
2019-05-26T06:20:16.931Z,27.48
2019-05-26T06:22:46.604Z,28.10
2019-05-26T06:25:16.234Z,28.32
2019-05-26T06:27:45.920Z,29.07
2019-05-26T06:30:17.003Z,26.75
2019-05-26T06:32:46.554Z,28.35
2019-05-26T06:35:17.123Z,27.87
2019-05-26T06:37:47.657Z,26.55
2019-05-26T06:40:17.221Z,27.58
2019-05-26T06:42:46.823Z,28.27
2019-05-26T06:45:16.667Z,26.97
2019-05-26T06:47:46.553Z,26.93
2019-05-26T06:50:16.442Z,27.90
2019-05-26T06:52:46.120Z,26.75
2019-05-26T06:55:15.866Z,25.80
2019-05-26T06:57:45.393Z,24.18
2019-05-26T07:00:15.030Z,24.00
2019-05-26T07:02:44.814Z,24.15
2019-05-26T07:05:18.241Z,23.25
2019-05-26T07:07:46.425Z,22.65
2019-05-26T07:10:16.098Z,22.55
2019-05-26T07:12:45.599Z,21.12
2019-05-26T07:15:15.995Z,20.62
2019-05-26T07:17:45.493Z,20.65
2019-05-26T07:20:15.115Z,21.17
2019-05-26T07:22:45.195Z,20.85
2019-05-26T07:25:14.824Z,20.27
2019-05-26T07:27:44.304Z,19.70
2019-05-26T07:30:14.662Z,20.23
2019-05-26T07:32:44.251Z,19.73
2019-05-26T07:35:15.069Z,18.57
2019-05-26T07:37:44.967Z,18.52
2019-05-26T07:40:14.640Z,17.98
2019-05-26T07:42:44.212Z,17.65
2019-05-26T07:45:14.284Z,17.15
2019-05-26T07:47:43.843Z,17.12
2019-05-26T07:50:13.461Z,17.82
2019-05-26T07:52:43.027Z,16.30
2019-05-26T07:55:12.619Z,15.00
2019-05-26T07:57:42.595Z,14.70
2019-05-26T08:00:12.506Z,15.83
2019-05-26T08:02:43.098Z,15.70
2019-05-26T08:05:12.629Z,14.87
2019-05-26T08:07:42.164Z,14.40
2019-05-26T08:10:11.858Z,15.55
2019-05-26T08:12:41.377Z,14.60
2019-05-26T08:15:11.010Z,13.78
2019-05-26T08:17:40.415Z,13.60
2019-05-26T08:20:11.852Z,12.88
2019-05-26T08:22:41.535Z,11.40
2019-05-26T08:25:12.014Z,11.38
2019-05-26T08:27:41.574Z,9.68
2019-05-26T08:30:11.230Z,10.45
2019-05-26T08:32:40.852Z,8.90
2019-05-26T08:35:10.514Z,9.05
2019-05-26T08:37:39.989Z,8.78
2019-05-26T08:40:19.009Z,8.58
2019-05-26T08:42:49.662Z,7.83
2019-05-26T08:45:22.027Z,7.25
2019-05-26T08:47:52.508Z,7.80
2019-05-26T08:50:22.972Z,7.65
2019-05-26T08:52:52.507Z,8.13
2019-05-26T08:55:22.086Z,7.10
2019-05-26T08:57:51.977Z,6.45
2019-05-26T09:00:22.089Z,4.33
2019-05-26T09:02:51.600Z,5.12
2019-05-26T09:05:21.665Z,4.37
2019-05-26T09:07:51.172Z,3.72
2019-05-26T09:10:20.999Z,4.40
2019-05-26T09:13:00.613Z,3.70
2019-05-26T09:15:22.711Z,3.27
2019-05-26T09:17:52.478Z,3.92
2019-05-26T09:20:22.049Z,4.00
2019-05-26T09:22:51.651Z,3.77
2019-05-26T09:25:21.506Z,3.55
2019-05-26T09:27:51.108Z,3.58
2019-05-26T09:30:20.941Z,3.67
2019-05-26T09:32:51.050Z,3.35
2019-05-26T09:35:21.084Z,3.77
2019-05-26T09:37:50.753Z,3.70
2019-05-26T09:40:20.311Z,3.00
2019-05-26T09:42:49.864Z,3.02
2019-05-26T09:45:19.533Z,2.90
2019-05-26T09:47:49.251Z,3.15
2019-05-26T09:50:18.967Z,3.10
2019-05-26T09:52:48.598Z,2.42
2019-05-26T09:55:18.284Z,3.10
2019-05-26T09:57:48.233Z,2.58
2019-05-26T10:00:17.994Z,2.90
2019-05-26T10:02:47.923Z,2.47
2019-05-26T10:05:17.430Z,2.70
2019-05-26T10:07:47.004Z,2.80
2019-05-26T10:10:18.206Z,3.00
2019-05-26T10:12:47.695Z,2.40
2019-05-26T10:15:17.428Z,2.90
2019-05-26T10:17:47.076Z,2.70
2019-05-26T10:20:17.073Z,2.80
2019-05-26T10:22:46.875Z,2.47
2019-05-26T10:25:16.590Z,2.67
2019-05-26T10:27:46.199Z,2.30
2019-05-26T10:30:16.058Z,2.20
2019-05-26T10:32:45.615Z,2.55
2019-05-26T10:35:15.206Z,2.25
2019-05-26T10:37:44.772Z,2.02
2019-05-26T10:40:14.851Z,2.40
2019-05-26T10:42:44.340Z,1.80
2019-05-26T10:45:14.856Z,2.40
2019-05-26T10:47:44.401Z,2.30
2019-05-26T10:50:14.245Z,2.22
2019-05-26T10:52:43.847Z,2.00
2019-05-26T10:55:13.850Z,2.22
2019-05-26T10:57:43.390Z,1.98
2019-05-26T11:00:12.935Z,2.65
2019-05-26T11:02:42.946Z,2.25
2019-05-26T11:05:13.198Z,2.40
2019-05-26T11:07:42.692Z,2.83
2019-05-26T11:10:12.910Z,2.55
2019-05-26T11:12:42.469Z,2.08
2019-05-26T11:15:12.273Z,2.20
2019-05-26T11:17:41.802Z,2.12
2019-05-26T11:20:11.646Z,2.30
2019-05-26T11:22:41.586Z,1.98
2019-05-26T11:25:11.788Z,2.55
2019-05-26T11:27:41.251Z,2.17
2019-05-26T11:30:11.325Z,2.55
2019-05-26T11:32:40.914Z,2.37
2019-05-26T11:35:10.595Z,2.50
2019-05-26T11:37:40.042Z,2.77
2019-05-26T11:40:10.767Z,2.17
2019-05-26T11:42:40.229Z,2.45
2019-05-26T11:45:10.507Z,2.70
2019-05-26T11:47:39.962Z,2.50
2019-05-26T11:50:11.239Z,2.47
2019-05-26T11:52:40.747Z,2.60
2019-05-26T11:55:10.658Z,2.30
2019-05-26T11:57:40.116Z,2.75
2019-05-26T12:00:11.208Z,2.67
2019-05-26T12:02:41.034Z,2.20
2019-05-26T12:05:10.834Z,2.47
2019-05-26T12:07:40.403Z,2.85
2019-05-26T12:10:13.909Z,2.90
2019-05-26T12:12:41.552Z,2.65
2019-05-26T12:15:11.549Z,2.60
2019-05-26T12:17:41.138Z,2.90
2019-05-26T12:20:10.707Z,2.90
2019-05-26T12:22:40.284Z,3.30
2019-05-26T12:25:11.098Z,3.20
2019-05-26T12:27:40.680Z,3.02
2019-05-26T12:30:10.564Z,3.37
2019-05-26T12:32:40.073Z,3.42
2019-05-26T12:35:09.638Z,3.10
2019-05-26T12:37:39.215Z,3.47
2019-05-26T12:40:09.107Z,3.40
2019-05-26T12:42:38.643Z,2.87
2019-05-26T12:45:08.741Z,2.75
2019-05-26T12:47:39.672Z,2.80
2019-05-26T12:50:09.868Z,3.25
2019-05-26T12:52:39.724Z,3.30
2019-05-26T12:55:10.105Z,3.15
2019-05-26T12:57:40.170Z,2.90
2019-05-26T13:00:10.228Z,3.10
2019-05-26T13:02:40.117Z,3.70
2019-05-26T13:05:10.021Z,3.20
2019-05-26T13:07:39.536Z,3.35
2019-05-26T13:10:09.742Z,3.17
2019-05-26T13:12:40.702Z,2.95
2019-05-26T13:15:12.228Z,2.87
2019-05-26T13:17:41.907Z,2.80
2019-05-26T13:20:11.956Z,3.08
2019-05-26T13:22:41.550Z,2.90
2019-05-26T13:25:12.679Z,3.25
2019-05-26T13:27:43.209Z,3.75
2019-05-26T13:30:13.391Z,3.20
2019-05-26T13:32:43.019Z,2.98
2019-05-26T13:35:13.414Z,3.35
2019-05-26T13:37:43.905Z,3.30
2019-05-26T13:40:14.570Z,3.92
2019-05-26T13:42:44.047Z,2.92
2019-05-26T13:45:22.474Z,3.20
2019-05-26T13:47:47.047Z,3.27
2019-05-26T13:50:17.222Z,3.22
2019-05-26T13:52:46.749Z,3.25
2019-05-26T13:55:16.974Z,3.52
2019-05-26T13:57:49.437Z,2.72
2019-05-26T14:00:18.006Z,3.67
2019-05-26T14:02:47.508Z,3.20
2019-05-26T14:05:17.098Z,3.20
2019-05-26T14:07:47.016Z,3.30
2019-05-26T14:10:19.886Z,3.47
2019-05-26T14:12:49.439Z,3.00
2019-05-26T14:15:20.368Z,3.50
2019-05-26T14:17:49.852Z,3.50
2019-05-26T14:20:20.958Z,3.33
2019-05-26T14:22:50.537Z,2.67
2019-05-26T14:25:20.765Z,3.37
2019-05-26T14:27:50.840Z,3.65
2019-05-26T14:30:20.535Z,3.22
2019-05-26T14:32:50.310Z,2.85
2019-05-26T14:35:19.885Z,3.67
2019-05-26T14:37:49.408Z,2.98
2019-05-26T14:40:18.945Z,3.65
2019-05-26T14:42:48.406Z,3.30
2019-05-26T14:45:19.352Z,3.00
2019-05-26T14:47:50.063Z,3.17
2019-05-26T14:50:19.869Z,3.25
2019-05-26T14:52:49.503Z,3.20
2019-05-26T14:55:19.018Z,3.17
2019-05-26T14:57:48.993Z,3.12
2019-05-26T15:00:19.236Z,3.12
2019-05-26T15:02:48.818Z,3.33
2019-05-26T15:05:18.371Z,3.02
2019-05-26T15:07:48.170Z,3.47
2019-05-26T15:10:18.102Z,3.08
2019-05-26T15:12:47.984Z,3.40
2019-05-26T15:15:17.870Z,3.20
2019-05-26T15:17:47.430Z,3.65
2019-05-26T15:20:17.249Z,3.77
2019-05-26T15:22:47.080Z,3.72
2019-05-26T15:25:16.656Z,3.40
2019-05-26T15:27:46.782Z,3.72
2019-05-26T15:30:18.991Z,3.80
2019-05-26T15:32:48.447Z,3.15
2019-05-26T15:35:18.116Z,3.83
2019-05-26T15:37:47.582Z,3.65
2019-05-26T15:40:17.067Z,3.52
2019-05-26T15:42:46.973Z,3.47
2019-05-26T15:45:17.277Z,3.22
2019-05-26T15:47:46.827Z,3.80
2019-05-26T15:50:17.167Z,3.80
2019-05-26T15:52:46.705Z,3.35
2019-05-26T15:55:16.857Z,3.62
2019-05-26T15:57:46.417Z,3.80
2019-05-26T16:00:17.962Z,3.87
2019-05-26T16:02:47.606Z,3.70
2019-05-26T16:05:17.368Z,4.25
2019-05-26T16:07:46.909Z,3.75
2019-05-26T16:10:17.912Z,3.47
2019-05-26T16:12:47.481Z,3.98
2019-05-26T16:15:17.244Z,3.50
2019-05-26T16:17:47.018Z,3.75
2019-05-26T16:20:16.751Z,3.60
2019-05-26T16:22:46.619Z,3.50
2019-05-26T16:25:16.760Z,3.50
2019-05-26T16:27:46.386Z,3.20
2019-05-26T16:30:16.497Z,3.35
2019-05-26T16:32:46.501Z,3.70
2019-05-26T16:35:16.198Z,3.65
2019-05-26T16:37:46.956Z,3.42
2019-05-26T16:40:16.856Z,3.70
2019-05-26T16:42:46.707Z,3.52
2019-05-26T16:45:16.502Z,4.00
2019-05-26T16:47:45.998Z,3.77
2019-05-26T16:50:15.654Z,3.33
2019-05-26T16:52:45.438Z,3.33
2019-05-26T16:55:15.348Z,3.45
2019-05-26T16:57:44.973Z,3.55
2019-05-26T17:00:14.859Z,3.62
2019-05-26T17:02:44.720Z,3.45
2019-05-26T17:05:14.672Z,3.70
2019-05-26T17:07:44.601Z,3.60
2019-05-26T17:10:14.236Z,3.33
2019-05-26T17:12:43.701Z,3.47
2019-05-26T17:15:13.411Z,3.62
2019-05-26T17:17:43.033Z,3.17
2019-05-26T17:20:12.781Z,3.60
2019-05-26T17:22:42.970Z,3.30
2019-05-26T17:25:12.753Z,3.55
2019-05-26T17:27:42.254Z,3.40
2019-05-26T17:30:12.355Z,3.50
2019-05-26T17:32:42.203Z,3.87
2019-05-26T17:35:11.845Z,3.70
2019-05-26T17:37:41.361Z,3.70
2019-05-26T17:40:11.554Z,3.70
2019-05-26T17:42:41.112Z,3.87
2019-05-26T17:45:10.898Z,3.70
2019-05-26T17:47:40.543Z,3.50
2019-05-26T17:50:11.942Z,3.35
2019-05-26T17:52:41.957Z,3.65
2019-05-26T17:55:11.779Z,3.25
2019-05-26T17:57:41.399Z,3.50
2019-05-26T18:00:11.905Z,3.75
2019-05-26T18:02:41.520Z,3.67
2019-05-26T18:05:11.503Z,3.40
2019-05-26T18:07:42.120Z,3.62
2019-05-26T18:10:11.974Z,3.60
2019-05-26T18:12:41.445Z,3.85
2019-05-26T18:15:12.780Z,3.62
2019-05-26T18:17:47.383Z,3.72
2019-05-26T18:20:13.919Z,3.80
2019-05-26T18:22:43.934Z,4.05
2019-05-26T18:25:13.714Z,3.85
2019-05-26T18:27:44.231Z,3.98
2019-05-26T18:30:13.962Z,4.15
2019-05-26T18:32:45.773Z,4.03
2019-05-26T18:35:15.620Z,3.77
2019-05-26T18:37:45.168Z,3.45
2019-05-26T18:40:16.907Z,3.72
2019-05-26T18:42:46.670Z,3.75
2019-05-26T18:45:16.844Z,4.35
2019-05-26T18:48:01.336Z,4.42
2019-05-26T18:50:18.368Z,4.20
2019-05-26T18:52:47.866Z,4.08
2019-05-26T18:55:19.073Z,3.77
2019-05-26T18:57:49.475Z,4.45
2019-05-26T19:00:19.300Z,4.10
2019-05-26T19:02:49.343Z,4.10
2019-05-26T19:05:32.401Z,4.83
2019-05-26T19:07:50.869Z,4.20
2019-05-26T19:10:20.630Z,5.05
2019-05-26T19:12:50.338Z,4.08
2019-05-26T19:15:20.113Z,4.35
2019-05-26T19:17:54.800Z,4.42
2019-05-26T19:20:24.868Z,5.15
2019-05-26T19:22:55.366Z,4.60
2019-05-26T19:25:25.944Z,4.30
2019-05-26T19:27:56.111Z,4.35
2019-05-26T19:30:25.696Z,4.55
2019-05-26T19:32:55.756Z,4.40
2019-05-26T19:35:25.479Z,4.53
2019-05-26T19:37:54.995Z,4.35
2019-05-26T19:40:24.554Z,4.15
2019-05-26T19:42:54.707Z,4.40
2019-05-26T19:45:24.362Z,4.30
2019-05-26T19:47:53.933Z,4.15
2019-05-26T19:50:23.569Z,4.30
2019-05-26T19:52:53.143Z,4.47
2019-05-26T19:55:22.717Z,4.35
2019-05-26T19:57:52.238Z,4.47
2019-05-26T20:00:22.576Z,4.40
2019-05-26T20:02:52.075Z,4.50
2019-05-26T20:05:22.804Z,4.10
2019-05-26T20:07:52.935Z,4.33
2019-05-26T20:10:23.482Z,4.20
2019-05-26T20:12:53.198Z,3.83
2019-05-26T20:15:22.942Z,4.55
2019-05-26T20:17:52.698Z,3.67
2019-05-26T20:20:22.204Z,4.25
2019-05-26T20:22:51.877Z,4.12
2019-05-26T20:25:21.530Z,3.92
2019-05-26T20:27:51.273Z,3.60
2019-05-26T20:30:22.114Z,4.30
2019-05-26T20:32:53.638Z,3.87
2019-05-26T20:35:23.128Z,3.98
2019-05-26T20:37:53.170Z,4.60
2019-05-26T20:40:23.150Z,4.17
2019-05-26T20:42:52.935Z,4.15
2019-05-26T20:45:22.737Z,4.28
2019-05-26T20:47:52.830Z,4.65
2019-05-26T20:50:29.282Z,5.00
2019-05-26T20:52:54.564Z,4.87
2019-05-26T20:55:24.504Z,5.20
2019-05-26T20:57:54.035Z,4.97
2019-05-26T21:00:23.541Z,5.53
2019-05-26T21:02:53.060Z,5.47
2019-05-26T21:05:22.711Z,5.37
2019-05-26T21:07:52.464Z,5.92
2019-05-26T21:10:21.971Z,6.17
2019-05-26T21:12:51.607Z,6.35
2019-05-26T21:15:21.140Z,6.25
2019-05-26T21:17:50.627Z,6.08
2019-05-26T21:20:20.178Z,5.75
2019-05-26T21:22:49.646Z,5.60
2019-05-26T21:25:19.716Z,5.75
2019-05-26T21:27:50.209Z,6.35
2019-05-26T21:30:19.946Z,6.87
2019-05-26T21:32:49.467Z,6.42
2019-05-26T21:35:19.457Z,6.58
2019-05-26T21:37:48.990Z,6.30
2019-05-26T21:40:18.581Z,5.80
2019-05-26T21:42:48.129Z,5.80
2019-05-26T21:45:17.787Z,5.85
2019-05-26T21:47:47.277Z,5.95
2019-05-26T21:50:16.832Z,5.80
2019-05-26T21:52:46.691Z,5.03
2019-05-26T21:55:16.154Z,5.12
2019-05-26T21:57:45.707Z,5.65
2019-05-26T22:00:18.434Z,5.90
2019-05-26T22:02:49.572Z,5.62
2019-05-26T22:05:19.435Z,5.35
2019-05-26T22:07:49.042Z,5.97
2019-05-26T22:10:18.972Z,5.20
2019-05-26T22:12:48.519Z,5.33
2019-05-26T22:15:18.176Z,5.10
2019-05-26T22:17:47.975Z,5.20
2019-05-26T22:20:17.503Z,5.40
2019-05-26T22:22:47.023Z,4.60
2019-05-26T22:25:16.546Z,4.50
2019-05-26T22:27:46.731Z,4.72
2019-05-26T22:30:16.276Z,4.58
2019-05-26T22:32:45.882Z,4.72
2019-05-26T22:35:15.672Z,4.85
2019-05-26T22:37:45.158Z,5.22
2019-05-26T22:40:14.809Z,5.35
2019-05-26T22:42:44.290Z,4.72
2019-05-26T22:45:14.279Z,4.53
2019-05-26T22:47:43.991Z,4.78
2019-05-26T22:50:13.905Z,4.85
2019-05-26T22:52:43.453Z,4.90
2019-05-26T22:55:13.103Z,5.12
2019-05-26T22:57:42.573Z,4.78
2019-05-26T23:00:12.469Z,5.17
2019-05-26T23:02:42.297Z,4.75
2019-05-26T23:05:11.907Z,5.08
2019-05-26T23:07:41.486Z,5.30
2019-05-26T23:10:11.180Z,4.75
2019-05-26T23:12:41.005Z,5.08
2019-05-26T23:15:11.142Z,5.45
2019-05-26T23:17:40.880Z,4.80
2019-05-26T23:20:10.692Z,4.85
2019-05-26T23:22:40.230Z,5.08
2019-05-26T23:25:10.148Z,4.62
2019-05-26T23:27:40.376Z,5.62
2019-05-26T23:30:10.825Z,5.25
2019-05-26T23:32:40.720Z,5.17
2019-05-26T23:35:10.464Z,5.37
2019-05-26T23:37:40.239Z,5.25
2019-05-26T23:40:09.948Z,5.40
2019-05-26T23:42:39.479Z,5.05
2019-05-26T23:45:09.457Z,5.15
2019-05-26T23:47:40.586Z,5.08
2019-05-26T23:50:10.171Z,6.08
2019-05-26T23:52:39.701Z,5.67
2019-05-26T23:55:09.958Z,5.70
2019-05-26T23:57:39.478Z,5.83
